createdAt,value
2022-10-22T00:00:54.579Z,60.51
2022-10-22T00:01:54.542Z,60.61
2022-10-22T00:02:54.618Z,60.51
2022-10-22T00:03:54.565Z,60.51
2022-10-22T00:04:54.601Z,60.61
2022-10-22T00:05:54.633Z,60.51
2022-10-22T00:06:54.612Z,60.51
2022-10-22T00:07:54.610Z,60.61
2022-10-22T00:08:54.687Z,60.51
2022-10-22T00:09:54.654Z,60.51
2022-10-22T00:10:54.668Z,60.51
2022-10-22T00:11:54.721Z,60.51
2022-10-22T00:12:54.732Z,60.51
2022-10-22T00:13:54.760Z,60.51
2022-10-22T00:14:54.782Z,60.51
2022-10-22T00:15:54.827Z,60.51
2022-10-22T00:16:54.865Z,60.51
2022-10-22T00:17:54.860Z,60.51
2022-10-22T00:18:54.890Z,60.51
2022-10-22T00:19:54.922Z,60.51
2022-10-22T00:20:54.950Z,60.51
2022-10-22T00:21:54.923Z,60.61
2022-10-22T00:22:54.955Z,60.51
2022-10-22T00:23:54.975Z,60.51
2022-10-22T00:24:55.012Z,60.51
2022-10-22T00:25:55.043Z,60.51
2022-10-22T00:26:55.070Z,60.51
2022-10-22T00:27:55.059Z,60.51
2022-10-22T00:28:55.085Z,60.51
2022-10-22T00:29:55.124Z,60.51
2022-10-22T00:30:55.108Z,60.51
2022-10-22T00:32:55.155Z,60.51
2022-10-22T00:33:55.173Z,60.51
2022-10-22T00:34:55.188Z,60.51
2022-10-22T00:35:55.209Z,60.51
2022-10-22T00:36:55.239Z,60.51
2022-10-22T00:37:55.254Z,60.51
2022-10-22T00:38:55.287Z,60.51
2022-10-22T00:39:55.310Z,60.51
2022-10-22T00:40:55.397Z,60.51
2022-10-22T00:41:55.355Z,60.51
2022-10-22T00:42:55.366Z,60.51
2022-10-22T00:43:55.395Z,60.51
2022-10-22T00:44:55.420Z,60.51
2022-10-22T00:45:55.446Z,60.51
2022-10-22T00:46:55.474Z,60.51
2022-10-22T00:47:55.513Z,60.51
2022-10-22T00:48:55.554Z,60.51
2022-10-22T00:49:55.600Z,60.51
2022-10-22T00:50:55.586Z,60.51
2022-10-22T00:51:55.598Z,60.51
2022-10-22T00:52:55.607Z,60.51
2022-10-22T00:53:55.621Z,60.51
2022-10-22T00:54:55.640Z,60.51
2022-10-22T00:55:55.650Z,60.51
2022-10-22T00:56:55.643Z,60.51
2022-10-22T00:57:55.672Z,60.51
2022-10-22T00:58:55.733Z,60.51
2022-10-22T00:59:55.698Z,60.51
2022-10-22T01:00:55.850Z,60.51
2022-10-22T01:01:55.748Z,60.51
2022-10-22T01:02:55.766Z,60.51
2022-10-22T01:03:55.799Z,60.51
2022-10-22T01:04:55.849Z,60.51
2022-10-22T01:05:55.842Z,60.51
2022-10-22T01:06:55.863Z,60.51
2022-10-22T01:07:55.879Z,60.51
2022-10-22T01:08:55.972Z,60.51
2022-10-22T01:09:55.941Z,60.51
2022-10-22T01:10:55.907Z,60.51
2022-10-22T01:11:55.927Z,60.51
2022-10-22T01:12:56.005Z,60.51
2022-10-22T01:13:55.989Z,60.51
2022-10-22T01:14:55.993Z,60.51
2022-10-22T01:15:56.022Z,60.51
2022-10-22T01:16:56.043Z,60.51
2022-10-22T01:17:56.061Z,60.51
2022-10-22T01:18:56.055Z,60.51
2022-10-22T01:19:56.122Z,60.41
2022-10-22T01:20:56.104Z,60.41
2022-10-22T01:21:56.103Z,60.41
2022-10-22T01:22:56.130Z,60.51
2022-10-22T01:23:56.160Z,60.51
2022-10-22T01:24:56.190Z,60.51
2022-10-22T01:25:56.178Z,60.51
2022-10-22T01:26:56.200Z,60.51
2022-10-22T01:27:56.165Z,60.51
2022-10-22T01:28:56.188Z,60.51
2022-10-22T01:29:56.217Z,60.51
2022-10-22T01:30:56.250Z,60.51
2022-10-22T01:31:56.232Z,60.51
2022-10-22T01:32:56.255Z,60.51
2022-10-22T01:33:56.268Z,60.41
2022-10-22T01:34:56.293Z,60.41
2022-10-22T01:35:56.325Z,60.51
2022-10-22T01:36:56.337Z,60.41
2022-10-22T01:37:56.337Z,60.41
2022-10-22T01:38:56.358Z,60.41
2022-10-22T01:39:56.355Z,60.51
2022-10-22T01:40:56.391Z,60.51
2022-10-22T01:41:56.407Z,60.51
2022-10-22T01:42:56.436Z,60.51
2022-10-22T01:43:56.448Z,60.41
2022-10-22T01:44:56.495Z,60.41
2022-10-22T01:45:56.469Z,60.41
2022-10-22T01:46:56.494Z,60.41
2022-10-22T01:47:56.522Z,60.51
2022-10-22T01:48:56.552Z,60.51
2022-10-22T01:49:56.548Z,60.51
2022-10-22T01:50:56.554Z,60.51
2022-10-22T01:51:56.574Z,60.51
2022-10-22T01:52:56.625Z,60.51
2022-10-22T01:53:56.625Z,60.51
2022-10-22T01:54:56.654Z,60.51
2022-10-22T01:55:56.686Z,60.51
2022-10-22T01:56:56.713Z,60.51
2022-10-22T01:57:56.742Z,60.51
2022-10-22T01:58:56.766Z,60.41
2022-10-22T01:59:56.804Z,60.51
2022-10-22T02:00:56.896Z,60.51
2022-10-22T02:01:56.776Z,60.51
2022-10-22T02:02:56.806Z,60.51
2022-10-22T02:03:56.868Z,60.51
2022-10-22T02:04:56.835Z,60.51
2022-10-22T02:05:56.892Z,60.51
2022-10-22T02:06:56.885Z,60.51
2022-10-22T02:07:56.921Z,60.51
2022-10-22T02:08:57.116Z,60.51
2022-10-22T02:09:56.953Z,60.51
2022-10-22T02:10:56.970Z,60.51
2022-10-22T02:11:57.040Z,60.51
2022-10-22T02:12:57.037Z,60.51
2022-10-22T02:13:57.018Z,60.51
2022-10-22T02:14:57.027Z,60.51
2022-10-22T02:15:57.043Z,60.51
2022-10-22T02:16:57.048Z,60.51
2022-10-22T02:17:57.079Z,60.51
2022-10-22T02:18:57.104Z,60.51
2022-10-22T02:19:57.092Z,60.51
2022-10-22T02:20:57.131Z,60.51
2022-10-22T02:21:57.109Z,60.51
2022-10-22T02:22:57.120Z,60.51
2022-10-22T02:23:57.137Z,60.51
2022-10-22T02:24:57.203Z,60.51
2022-10-22T02:25:57.161Z,60.51
2022-10-22T02:26:57.185Z,60.51
2022-10-22T02:27:57.214Z,60.51
2022-10-22T02:28:57.231Z,60.51
2022-10-22T02:29:57.255Z,60.51
2022-10-22T02:30:57.263Z,60.51
2022-10-22T02:31:57.268Z,60.51
2022-10-22T02:32:57.287Z,60.51
2022-10-22T02:33:57.313Z,60.51
2022-10-22T02:34:57.360Z,60.51
2022-10-22T02:35:57.362Z,60.51
2022-10-22T02:36:57.385Z,60.51
2022-10-22T02:37:57.388Z,60.51
2022-10-22T02:38:57.410Z,60.51
2022-10-22T02:39:57.435Z,60.51
2022-10-22T02:40:57.467Z,60.51
2022-10-22T02:41:57.459Z,60.51
2022-10-22T02:42:57.485Z,60.51
2022-10-22T02:43:57.523Z,60.51
2022-10-22T02:44:57.548Z,60.51
2022-10-22T02:45:57.576Z,60.51
2022-10-22T02:46:57.561Z,60.51
2022-10-22T02:47:57.579Z,60.51
2022-10-22T02:48:57.604Z,60.51
2022-10-22T02:49:57.630Z,60.51
2022-10-22T02:50:57.646Z,60.51
2022-10-22T02:51:57.630Z,60.51
2022-10-22T02:52:57.661Z,60.51
2022-10-22T02:53:57.691Z,60.51
2022-10-22T02:54:57.712Z,60.51
2022-10-22T02:55:57.736Z,60.51
2022-10-22T02:56:57.784Z,60.51
2022-10-22T02:57:57.722Z,60.51
2022-10-22T02:58:57.750Z,60.41
2022-10-22T02:59:57.804Z,60.41
2022-10-22T03:00:57.950Z,60.41
2022-10-22T03:01:57.850Z,60.41
2022-10-22T03:02:57.882Z,60.41
2022-10-22T03:03:57.860Z,60.41
2022-10-22T03:04:57.899Z,60.51
2022-10-22T03:05:57.907Z,60.51
2022-10-22T03:06:57.939Z,60.51
2022-10-22T03:07:57.951Z,60.51
2022-10-22T03:08:58.076Z,60.51
2022-10-22T03:09:57.954Z,60.41
2022-10-22T03:10:57.987Z,60.51
2022-10-22T03:11:58.030Z,60.41
2022-10-22T03:12:58.019Z,60.41
2022-10-22T03:13:58.047Z,60.41
2022-10-22T03:14:58.052Z,60.41
2022-10-22T03:15:58.087Z,60.41
2022-10-22T03:16:58.076Z,60.41
2022-10-22T03:17:58.105Z,60.51
2022-10-22T03:18:58.103Z,60.51
2022-10-22T03:19:58.129Z,60.51
2022-10-22T03:20:58.163Z,60.51
2022-10-22T03:21:58.194Z,60.51
2022-10-22T03:22:58.226Z,60.51
2022-10-22T03:23:58.209Z,60.51
2022-10-22T03:24:58.220Z,60.51
2022-10-22T03:26:58.262Z,60.41
2022-10-22T03:27:58.290Z,60.41
2022-10-22T03:28:58.296Z,60.41
2022-10-22T03:29:58.286Z,60.41
2022-10-22T03:30:58.289Z,60.41
2022-10-22T03:31:58.316Z,60.41
2022-10-22T03:32:58.306Z,60.41
2022-10-22T03:33:58.314Z,60.41
2022-10-22T03:35:58.353Z,60.51
2022-10-22T03:36:58.378Z,60.41
2022-10-22T03:37:58.397Z,60.41
2022-10-22T03:38:58.394Z,60.53
2022-10-22T03:39:58.424Z,60.41
2022-10-22T03:40:58.441Z,60.41
2022-10-22T03:41:58.449Z,60.41
2022-10-22T03:42:58.475Z,60.41
2022-10-22T03:43:58.464Z,60.41
2022-10-22T03:44:58.504Z,60.41
2022-10-22T03:45:58.504Z,60.41
2022-10-22T03:47:01.637Z,60.41
2022-10-22T03:47:58.575Z,60.41
2022-10-22T03:48:58.558Z,60.44
2022-10-22T03:49:58.554Z,60.41
2022-10-22T03:50:58.529Z,60.44
2022-10-22T03:51:58.560Z,60.41
2022-10-22T03:52:58.579Z,60.41
2022-10-22T03:53:58.611Z,60.41
2022-10-22T03:54:58.691Z,60.41
2022-10-22T03:55:58.625Z,60.41
2022-10-22T03:56:58.654Z,60.41
2022-10-22T03:57:58.674Z,60.41
2022-10-22T03:58:58.700Z,60.41
2022-10-22T03:59:58.982Z,60.41
2022-10-22T04:00:58.799Z,60.41
2022-10-22T04:01:58.747Z,60.41
2022-10-22T04:02:58.743Z,60.41
2022-10-22T04:03:58.798Z,60.44
2022-10-22T04:04:58.882Z,60.41
2022-10-22T04:05:58.803Z,60.41
2022-10-22T04:06:58.828Z,60.44
2022-10-22T04:07:58.825Z,60.41
2022-10-22T04:08:58.862Z,60.41
2022-10-22T04:09:58.861Z,60.41
2022-10-22T04:10:58.849Z,60.41
2022-10-22T04:11:58.842Z,60.41
2022-10-22T04:12:58.878Z,60.41
2022-10-22T04:13:58.886Z,60.41
2022-10-22T04:14:58.911Z,60.41
2022-10-22T04:15:58.910Z,60.41
2022-10-22T04:16:58.957Z,60.41
2022-10-22T04:17:58.960Z,60.41
2022-10-22T04:18:58.977Z,60.41
2022-10-22T04:19:59.002Z,60.41
2022-10-22T04:20:59.013Z,60.41
2022-10-22T04:21:59.045Z,60.44
2022-10-22T04:22:59.062Z,60.44
2022-10-22T04:23:59.088Z,60.41
2022-10-22T04:24:59.100Z,60.41
2022-10-22T04:25:59.078Z,60.41
2022-10-22T04:26:59.109Z,60.41
2022-10-22T04:27:59.148Z,60.44
2022-10-22T04:28:59.287Z,60.41
2022-10-22T04:29:59.159Z,60.44
2022-10-22T04:30:59.179Z,60.41
2022-10-22T04:31:59.200Z,60.41
2022-10-22T04:32:59.228Z,60.41
2022-10-22T04:33:59.277Z,60.41
2022-10-22T04:34:59.234Z,60.44
2022-10-22T04:35:59.260Z,60.41
2022-10-22T04:36:59.268Z,60.41
2022-10-22T04:37:59.293Z,60.41
2022-10-22T04:38:59.387Z,60.41
2022-10-22T04:39:59.301Z,60.41
2022-10-22T04:40:59.326Z,60.41
2022-10-22T04:41:59.345Z,60.44
2022-10-22T04:42:59.380Z,60.41
2022-10-22T04:43:59.380Z,60.41
2022-10-22T04:44:59.399Z,60.44
2022-10-22T04:45:59.405Z,60.44
2022-10-22T04:46:59.428Z,60.41
2022-10-22T04:47:59.444Z,60.44
2022-10-22T04:48:59.497Z,60.44
2022-10-22T04:49:59.497Z,60.41
2022-10-22T04:50:59.527Z,60.41
2022-10-22T04:51:59.540Z,60.44
2022-10-22T04:52:59.575Z,60.44
2022-10-22T04:53:59.632Z,60.44
2022-10-22T04:54:59.634Z,60.41
2022-10-22T04:55:59.665Z,60.41
2022-10-22T04:56:59.687Z,60.41
2022-10-22T04:57:59.716Z,60.44
2022-10-22T04:58:59.797Z,60.41
2022-10-22T04:59:59.779Z,60.41
2022-10-22T05:00:59.838Z,60.41
2022-10-22T05:01:59.742Z,60.53
2022-10-22T05:02:59.750Z,60.51
2022-10-22T05:03:59.800Z,60.53
2022-10-22T05:04:59.844Z,60.44
2022-10-22T05:05:59.776Z,60.53
2022-10-22T05:06:59.783Z,60.64
2022-10-22T05:07:59.809Z,60.53
2022-10-22T05:08:59.879Z,60.53
2022-10-22T05:09:59.845Z,60.53
2022-10-22T05:10:59.861Z,60.44
2022-10-22T05:11:59.895Z,60.44
2022-10-22T05:12:59.876Z,60.44
2022-10-22T05:13:59.915Z,60.44
2022-10-22T05:14:59.941Z,60.44
2022-10-22T05:15:59.932Z,60.44
2022-10-22T05:16:59.947Z,60.41
2022-10-22T05:17:59.959Z,60.44
2022-10-22T05:18:59.980Z,60.41
2022-10-22T05:19:59.998Z,60.41
2022-10-22T05:21:00.000Z,60.44
2022-10-22T05:22:00.009Z,60.44
2022-10-22T05:23:00.021Z,60.44
2022-10-22T05:24:00.081Z,60.44
2022-10-22T05:25:00.025Z,60.44
2022-10-22T05:26:00.050Z,60.44
2022-10-22T05:27:00.078Z,60.44
2022-10-22T05:28:00.426Z,60.44
2022-10-22T05:29:00.097Z,60.41
2022-10-22T05:30:00.111Z,60.44
2022-10-22T05:31:00.139Z,60.44
2022-10-22T05:32:00.154Z,60.44
2022-10-22T05:33:00.174Z,60.44
2022-10-22T05:34:00.157Z,60.44
2022-10-22T05:35:00.199Z,60.44
2022-10-22T05:36:00.207Z,60.44
2022-10-22T05:37:00.275Z,60.44
2022-10-22T05:38:00.259Z,60.44
2022-10-22T05:39:00.234Z,60.44
2022-10-22T05:40:12.446Z,60.44
2022-10-22T05:41:00.289Z,60.44
2022-10-22T05:42:00.304Z,60.44
2022-10-22T05:43:00.376Z,60.44
2022-10-22T05:44:00.344Z,60.41
2022-10-22T05:45:00.331Z,60.44
2022-10-22T05:46:00.339Z,60.44
2022-10-22T05:47:00.362Z,60.44
2022-10-22T05:48:00.397Z,60.44
2022-10-22T05:49:00.509Z,60.44
2022-10-22T05:50:00.443Z,60.44
2022-10-22T05:51:00.458Z,60.44
2022-10-22T05:52:00.473Z,60.44
2022-10-22T05:53:00.502Z,60.44
2022-10-22T05:54:00.498Z,60.44
2022-10-22T05:55:00.549Z,60.44
2022-10-22T05:56:00.516Z,60.44
2022-10-22T05:57:00.543Z,60.44
2022-10-22T05:58:00.575Z,60.44
2022-10-22T05:59:00.609Z,60.44
2022-10-22T06:00:00.594Z,60.41
2022-10-22T06:01:00.603Z,60.44
2022-10-22T06:02:00.681Z,60.44
2022-10-22T06:03:00.660Z,60.41
2022-10-22T06:04:00.635Z,60.41
2022-10-22T06:05:00.644Z,60.44
2022-10-22T06:06:00.667Z,60.41
2022-10-22T06:07:00.695Z,60.44
2022-10-22T06:08:00.767Z,60.44
2022-10-22T06:09:00.893Z,60.41
2022-10-22T06:10:00.752Z,60.41
2022-10-22T06:11:00.777Z,60.31
2022-10-22T06:12:00.793Z,60.31
2022-10-22T06:13:00.817Z,60.41
2022-10-22T06:14:00.831Z,60.31
2022-10-22T06:15:00.836Z,60.31
2022-10-22T06:16:00.839Z,60.31
2022-10-22T06:17:00.866Z,60.33
2022-10-22T06:18:00.916Z,60.41
2022-10-22T06:19:00.877Z,60.44
2022-10-22T06:20:00.987Z,60.31
2022-10-22T06:21:00.900Z,60.31
2022-10-22T06:22:00.923Z,60.31
2022-10-22T06:23:00.963Z,60.33
2022-10-22T06:24:00.983Z,60.31
2022-10-22T06:25:01.015Z,60.31
2022-10-22T06:26:01.024Z,60.31
2022-10-22T06:27:01.033Z,60.31
2022-10-22T06:28:01.048Z,60.31
2022-10-22T06:29:01.060Z,60.31
2022-10-22T06:30:01.072Z,60.31
2022-10-22T06:31:01.101Z,60.31
2022-10-22T06:32:01.112Z,60.31
2022-10-22T06:33:01.109Z,60.31
2022-10-22T06:34:01.128Z,60.31
2022-10-22T06:35:01.162Z,60.21
2022-10-22T06:36:05.279Z,60.21
2022-10-22T06:37:01.221Z,60.31
2022-10-22T06:38:01.242Z,60.21
2022-10-22T06:39:01.216Z,60.21
2022-10-22T06:40:01.212Z,60.21
2022-10-22T06:41:01.286Z,60.21
2022-10-22T06:42:01.235Z,60.11
2022-10-22T06:43:01.234Z,60.21
2022-10-22T06:44:01.266Z,60.11
2022-10-22T06:46:01.285Z,60.11
2022-10-22T06:47:01.292Z,60.21
2022-10-22T06:48:01.308Z,60.11
2022-10-22T06:49:01.325Z,60.11
2022-10-22T06:50:01.352Z,60.11
2022-10-22T06:51:01.399Z,60.11
2022-10-22T06:52:01.423Z,60.11
2022-10-22T06:53:01.440Z,60.11
2022-10-22T06:54:01.473Z,60.11
2022-10-22T06:55:01.514Z,60.11
2022-10-22T06:56:01.515Z,60.11
2022-10-22T06:57:01.564Z,60.11
2022-10-22T06:58:01.584Z,60.11
2022-10-22T06:59:01.606Z,60.01
2022-10-22T07:00:01.648Z,60.01
2022-10-22T07:01:01.709Z,60.01
2022-10-22T07:02:01.627Z,60.01
2022-10-22T07:03:01.670Z,60.01
2022-10-22T07:04:01.648Z,60.01
2022-10-22T07:05:01.670Z,60.01
2022-10-22T07:06:01.688Z,60.01
2022-10-22T07:07:01.698Z,60.01
2022-10-22T07:08:01.662Z,60.01
2022-10-22T07:09:01.767Z,60.01
2022-10-22T07:10:01.645Z,60.01
2022-10-22T07:11:01.664Z,60.01
2022-10-22T07:12:01.737Z,60.01
2022-10-22T07:13:01.724Z,60.01
2022-10-22T07:14:01.725Z,60.01
2022-10-22T07:15:01.765Z,60.01
2022-10-22T07:16:01.746Z,59.91
2022-10-22T07:17:01.779Z,59.91
2022-10-22T07:18:01.755Z,59.91
2022-10-22T07:19:01.788Z,59.91
2022-10-22T07:20:01.800Z,59.91
2022-10-22T07:21:01.829Z,59.91
2022-10-22T07:22:01.814Z,59.91
2022-10-22T07:23:01.838Z,59.81
2022-10-22T07:24:01.875Z,59.81
2022-10-22T07:25:06.622Z,59.81
2022-10-22T07:26:01.930Z,59.81
2022-10-22T07:27:01.901Z,59.81
2022-10-22T07:28:01.927Z,59.81
2022-10-22T07:29:02.165Z,59.81
2022-10-22T07:30:01.955Z,59.81
2022-10-22T07:31:01.974Z,59.81
2022-10-22T07:32:01.992Z,59.81
2022-10-22T07:33:01.996Z,59.81
2022-10-22T07:34:02.015Z,59.81
2022-10-22T07:35:02.040Z,59.81
2022-10-22T07:36:02.063Z,59.81
2022-10-22T07:37:02.082Z,59.81
2022-10-22T07:38:02.130Z,59.81
2022-10-22T07:39:02.096Z,59.81
2022-10-22T07:40:03.939Z,59.81
2022-10-22T07:41:02.140Z,59.81
2022-10-22T07:42:02.138Z,59.81
2022-10-22T07:43:02.143Z,59.81
2022-10-22T07:44:02.144Z,59.81
2022-10-22T07:45:02.173Z,59.81
2022-10-22T07:46:02.249Z,59.81
2022-10-22T07:47:02.190Z,59.81
2022-10-22T07:48:02.198Z,59.81
2022-10-22T07:49:02.209Z,59.81
2022-10-22T07:50:02.223Z,59.78
2022-10-22T07:51:02.273Z,59.70
2022-10-22T07:52:02.278Z,59.68
2022-10-22T07:53:02.316Z,59.68
2022-10-22T07:54:02.333Z,59.68
2022-10-22T07:55:02.371Z,59.68
2022-10-22T07:56:02.400Z,59.68
2022-10-22T07:57:02.372Z,59.68
2022-10-22T07:58:02.403Z,59.68
2022-10-22T08:00:02.426Z,59.68
2022-10-22T08:01:02.519Z,59.68
2022-10-22T08:02:02.454Z,59.58
2022-10-22T08:03:02.490Z,59.58
2022-10-22T08:04:02.505Z,59.58
2022-10-22T08:05:02.530Z,59.58
2022-10-22T08:06:02.565Z,59.68
2022-10-22T08:07:02.542Z,59.58
2022-10-22T08:08:02.578Z,59.58
2022-10-22T08:09:02.633Z,59.58
2022-10-22T08:10:02.627Z,59.58
2022-10-22T08:11:02.644Z,59.58
2022-10-22T08:12:02.649Z,59.48
2022-10-22T08:13:02.821Z,59.58
2022-10-22T08:14:02.720Z,59.58
2022-10-22T08:15:02.727Z,59.58
2022-10-22T08:16:02.694Z,59.58
2022-10-22T08:17:02.729Z,59.58
2022-10-22T08:18:02.751Z,59.48
2022-10-22T08:19:02.757Z,59.58
2022-10-22T08:20:02.791Z,59.58
2022-10-22T08:21:02.766Z,59.48
2022-10-22T08:22:02.794Z,59.48
2022-10-22T08:23:02.821Z,59.48
2022-10-22T08:24:02.915Z,59.48
2022-10-22T08:25:02.856Z,59.58
2022-10-22T08:26:02.858Z,59.58
2022-10-22T08:27:02.856Z,59.48
2022-10-22T08:28:02.880Z,59.48
2022-10-22T08:29:02.896Z,59.48
2022-10-22T08:30:02.927Z,59.48
2022-10-22T08:31:02.926Z,59.48
2022-10-22T08:32:02.902Z,59.48
2022-10-22T08:33:02.970Z,59.38
2022-10-22T08:34:02.918Z,59.38
2022-10-22T08:35:02.959Z,59.38
2022-10-22T08:36:02.974Z,59.38
2022-10-22T08:37:02.968Z,59.38
2022-10-22T08:38:02.993Z,59.38
2022-10-22T08:39:02.990Z,59.38
2022-10-22T08:40:03.009Z,59.48
2022-10-22T08:41:03.035Z,59.38
2022-10-22T08:42:03.019Z,59.38
2022-10-22T08:43:03.046Z,59.38
2022-10-22T08:44:03.048Z,59.38
2022-10-22T08:45:03.054Z,59.28
2022-10-22T08:46:03.119Z,59.38
2022-10-22T08:47:03.078Z,59.38
2022-10-22T08:48:03.111Z,59.38
2022-10-22T08:49:03.225Z,59.38
2022-10-22T08:50:03.166Z,59.38
2022-10-22T08:51:03.214Z,59.38
2022-10-22T08:52:03.173Z,59.28
2022-10-22T08:53:03.156Z,59.25
2022-10-22T08:54:03.190Z,59.25
2022-10-22T08:55:03.217Z,59.25
2022-10-22T08:56:03.251Z,59.25
2022-10-22T08:57:03.232Z,59.25
2022-10-22T08:58:03.279Z,59.15
2022-10-22T08:59:03.286Z,59.25
2022-10-22T09:00:03.330Z,59.25
2022-10-22T09:01:03.370Z,59.25
2022-10-22T09:02:03.351Z,59.15
2022-10-22T09:03:03.370Z,59.25
2022-10-22T09:04:03.403Z,59.25
2022-10-22T09:05:03.449Z,59.15
2022-10-22T09:06:03.487Z,59.25
2022-10-22T09:07:03.491Z,59.15
2022-10-22T09:08:03.452Z,59.15
2022-10-22T09:09:03.558Z,59.15
2022-10-22T09:10:03.487Z,59.15
2022-10-22T09:11:03.510Z,59.15
2022-10-22T09:12:03.542Z,59.15
2022-10-22T09:13:03.529Z,59.05
2022-10-22T09:14:03.654Z,59.05
2022-10-22T09:15:03.541Z,59.15
2022-10-22T09:16:03.589Z,59.25
2022-10-22T09:17:03.562Z,59.15
2022-10-22T09:18:03.546Z,59.15
2022-10-22T09:19:03.567Z,59.15
2022-10-22T09:20:03.566Z,59.05
2022-10-22T09:21:03.610Z,59.05
2022-10-22T09:22:03.644Z,59.05
2022-10-22T09:23:03.611Z,58.95
2022-10-22T09:24:03.614Z,59.05
2022-10-22T09:25:03.608Z,58.95
2022-10-22T09:26:03.587Z,58.95
2022-10-22T09:27:03.625Z,58.95
2022-10-22T09:28:03.642Z,59.05
2022-10-22T09:29:03.640Z,58.95
2022-10-22T09:30:03.653Z,59.05
2022-10-22T09:31:03.822Z,58.95
2022-10-22T09:32:03.667Z,58.95
2022-10-22T09:33:03.710Z,58.85
2022-10-22T09:34:03.724Z,58.85
2022-10-22T09:35:03.752Z,58.85
2022-10-22T09:36:03.772Z,58.85
2022-10-22T09:37:03.786Z,58.85
2022-10-22T09:38:03.748Z,58.82
2022-10-22T09:39:03.818Z,58.72
2022-10-22T09:40:03.751Z,58.82
2022-10-22T09:41:04.070Z,58.72
2022-10-22T09:42:03.789Z,58.72
2022-10-22T09:43:03.773Z,58.92
2022-10-22T09:44:03.792Z,58.92
2022-10-22T09:45:03.789Z,58.72
2022-10-22T09:46:03.819Z,58.82
2022-10-22T09:47:03.844Z,58.72
2022-10-22T09:48:03.809Z,58.72
2022-10-22T09:49:03.829Z,58.82
2022-10-22T09:50:03.857Z,58.72
2022-10-22T09:51:04.029Z,58.72
2022-10-22T09:52:03.875Z,58.72
2022-10-22T09:53:03.895Z,58.72
2022-10-22T09:54:03.895Z,58.82
2022-10-22T09:55:03.928Z,58.72
2022-10-22T09:56:03.944Z,58.72
2022-10-22T09:57:03.946Z,58.62
2022-10-22T09:58:03.958Z,58.62
2022-10-22T09:59:03.954Z,58.52
2022-10-22T10:00:03.980Z,58.62
2022-10-22T10:01:04.024Z,58.72
2022-10-22T10:02:13.782Z,58.62
2022-10-22T10:03:04.048Z,58.62
2022-10-22T10:04:08.434Z,58.62
2022-10-22T10:05:04.045Z,58.62
2022-10-22T10:06:06.068Z,58.52
2022-10-22T10:07:04.123Z,58.52
2022-10-22T10:08:04.122Z,58.72
2022-10-22T10:09:04.246Z,58.62
2022-10-22T10:10:04.151Z,58.42
2022-10-22T10:11:04.166Z,58.52
2022-10-22T10:12:04.201Z,58.52
2022-10-22T10:13:04.236Z,58.59
2022-10-22T10:14:04.249Z,58.39
2022-10-22T10:15:04.266Z,58.29
2022-10-22T10:16:04.275Z,58.39
2022-10-22T10:17:04.299Z,58.42
2022-10-22T10:18:04.362Z,58.49
2022-10-22T10:19:04.330Z,59.09
2022-10-22T10:20:04.550Z,58.89
2022-10-22T10:21:04.433Z,58.59
2022-10-22T10:22:04.358Z,58.49
2022-10-22T10:23:04.395Z,58.39
2022-10-22T10:24:04.361Z,58.89
2022-10-22T10:25:04.423Z,58.49
2022-10-22T10:26:04.415Z,58.39
2022-10-22T10:27:04.437Z,58.39
2022-10-22T10:28:04.449Z,58.49
2022-10-22T10:29:04.456Z,58.49
2022-10-22T10:30:04.474Z,58.39
2022-10-22T10:31:04.497Z,58.29
2022-10-22T10:32:04.516Z,58.59
2022-10-22T10:33:04.566Z,58.59
2022-10-22T10:34:04.549Z,58.39
2022-10-22T10:35:04.571Z,58.49
2022-10-22T10:36:04.598Z,58.89
2022-10-22T10:37:04.613Z,58.39
2022-10-22T10:38:04.668Z,58.39
2022-10-22T10:39:04.635Z,58.59
2022-10-22T10:40:04.640Z,58.49
2022-10-22T10:41:04.694Z,58.69
2022-10-22T10:42:04.692Z,59.09
2022-10-22T10:43:04.704Z,58.59
2022-10-22T10:44:04.722Z,58.39
2022-10-22T10:45:04.737Z,58.29
2022-10-22T10:46:04.787Z,58.49
2022-10-22T10:47:04.761Z,58.69
2022-10-22T10:48:04.763Z,58.59
2022-10-22T10:49:04.796Z,58.39
2022-10-22T10:50:04.812Z,58.49
2022-10-22T10:51:04.828Z,58.39
2022-10-22T10:52:04.864Z,58.39
2022-10-22T10:53:04.895Z,58.29
2022-10-22T10:54:04.886Z,58.29
2022-10-22T10:55:04.882Z,58.29
2022-10-22T10:56:04.912Z,58.29
2022-10-22T10:57:04.961Z,58.17
2022-10-22T10:58:04.987Z,57.97
2022-10-22T10:59:04.960Z,57.97
2022-10-22T11:00:04.992Z,57.87
2022-10-22T11:01:05.001Z,57.87
2022-10-22T11:02:05.042Z,57.76
2022-10-22T11:03:05.041Z,57.67
2022-10-22T11:04:05.123Z,58.26
2022-10-22T11:05:05.068Z,58.06
2022-10-22T11:06:05.086Z,57.87
2022-10-22T11:07:11.286Z,57.87
2022-10-22T11:08:05.126Z,57.57
2022-10-22T11:09:05.212Z,57.57
2022-10-22T11:10:05.177Z,57.67
2022-10-22T11:11:05.219Z,57.67
2022-10-22T11:12:05.199Z,57.67
2022-10-22T11:13:05.223Z,57.76
2022-10-22T11:14:05.173Z,57.76
2022-10-22T11:15:05.188Z,58.17
2022-10-22T11:16:05.225Z,58.06
2022-10-22T11:17:05.230Z,57.97
2022-10-22T11:18:05.263Z,57.97
2022-10-22T11:19:05.293Z,57.76
2022-10-22T11:20:05.314Z,57.87
2022-10-22T11:21:05.319Z,57.67
2022-10-22T11:22:05.409Z,57.67
2022-10-22T11:23:21.749Z,57.76
2022-10-22T11:24:05.380Z,57.97
2022-10-22T11:25:05.406Z,57.76
2022-10-22T11:26:05.415Z,57.64
2022-10-22T11:27:05.455Z,57.64
2022-10-22T11:28:10.364Z,57.84
2022-10-22T11:29:05.506Z,57.64
2022-10-22T11:30:05.490Z,57.74
2022-10-22T11:31:05.491Z,57.93
2022-10-22T11:32:05.525Z,57.84
2022-10-22T11:33:05.512Z,57.54
2022-10-22T11:34:28.493Z,57.74
2022-10-22T11:35:05.543Z,57.84
2022-10-22T11:36:05.539Z,57.54
2022-10-22T11:37:05.567Z,57.84
2022-10-22T11:38:05.531Z,57.44
2022-10-22T11:39:05.554Z,57.24
2022-10-22T11:40:05.582Z,57.34
2022-10-22T11:41:05.592Z,57.14
2022-10-22T11:42:05.592Z,57.54
2022-10-22T11:43:05.601Z,57.54
2022-10-22T11:44:05.567Z,57.44
2022-10-22T11:45:05.623Z,57.34
2022-10-22T11:46:05.618Z,57.14
2022-10-22T11:47:05.627Z,57.34
2022-10-22T11:48:05.651Z,57.04
2022-10-22T11:49:05.680Z,57.01
2022-10-22T11:50:05.675Z,57.01
2022-10-22T11:51:05.685Z,56.91
2022-10-22T11:52:05.719Z,56.81
2022-10-22T11:53:05.795Z,56.81
2022-10-22T11:54:05.759Z,56.81
2022-10-22T11:55:05.743Z,56.91
2022-10-22T11:56:05.753Z,56.91
2022-10-22T11:57:05.760Z,56.91
2022-10-22T11:58:05.783Z,56.91
2022-10-22T11:59:05.835Z,56.91
2022-10-22T12:00:05.811Z,57.01
2022-10-22T12:01:05.858Z,57.01
2022-10-22T12:02:05.874Z,56.91
2022-10-22T12:03:05.883Z,56.91
2022-10-22T12:04:05.965Z,56.91
2022-10-22T12:05:05.947Z,56.81
2022-10-22T12:06:05.944Z,56.81
2022-10-22T12:07:05.951Z,56.71
2022-10-22T12:08:05.958Z,56.61
2022-10-22T12:09:06.096Z,56.71
2022-10-22T12:10:06.001Z,56.81
2022-10-22T12:11:06.025Z,56.81
2022-10-22T12:12:06.054Z,56.91
2022-10-22T12:13:06.081Z,56.91
2022-10-22T12:14:06.122Z,56.91
2022-10-22T12:15:06.096Z,56.91
2022-10-22T12:16:06.123Z,57.01
2022-10-22T12:17:06.194Z,56.91
2022-10-22T12:18:06.217Z,56.91
2022-10-22T12:19:06.136Z,56.91
2022-10-22T12:20:06.141Z,56.91
2022-10-22T12:21:06.177Z,56.91
2022-10-22T12:22:06.202Z,56.91
2022-10-22T12:23:06.237Z,56.91
2022-10-22T12:24:06.255Z,56.91
2022-10-22T12:25:06.284Z,56.91
2022-10-22T12:26:06.302Z,56.91
2022-10-22T12:27:06.357Z,56.91
2022-10-22T12:28:06.309Z,56.91
2022-10-22T12:29:06.307Z,57.01
2022-10-22T12:30:06.379Z,57.01
2022-10-22T12:31:06.321Z,57.01
2022-10-22T12:32:06.333Z,57.01
2022-10-22T12:33:06.349Z,57.01
2022-10-22T12:34:06.338Z,57.01
2022-10-22T12:35:06.364Z,57.01
2022-10-22T12:36:06.393Z,57.01
2022-10-22T12:37:06.409Z,57.01
2022-10-22T12:38:06.425Z,57.41
2022-10-22T12:39:06.462Z,57.11
2022-10-22T12:40:06.536Z,57.11
2022-10-22T12:41:06.454Z,57.24
2022-10-22T12:42:06.493Z,57.34
2022-10-22T12:43:06.569Z,57.24
2022-10-22T12:44:06.499Z,57.24
2022-10-22T12:45:06.496Z,57.31
2022-10-22T12:46:06.550Z,57.24
2022-10-22T12:47:06.537Z,57.11
2022-10-22T12:48:06.520Z,57.31
2022-10-22T12:49:06.565Z,57.11
2022-10-22T12:50:06.561Z,57.11
2022-10-22T12:51:06.599Z,57.21
2022-10-22T12:52:08.711Z,57.21
2022-10-22T12:53:06.582Z,57.21
2022-10-22T12:54:06.627Z,57.21
2022-10-22T12:55:06.575Z,57.21
2022-10-22T12:56:06.614Z,57.31
2022-10-22T12:57:06.640Z,57.11
2022-10-22T12:58:06.679Z,57.11